Time;durP1;ratioP1;P1;durP2;ratioP2;P2;SDS_P1;SDS_P2;PMS_P1;PMS_P2;Temp;Humidity;BMP_temperature;BMP_pressure;BME280_temperature;BME280_humidity;BME280_pressure;Samples;Min_cycle;Max_cycle;Signal;HPM_P1;HPM_P2
2021/12/28 00:03:18;;;;;;;75.85;26.73;;;;;;;-5.31;100.00;100207.09;5129547;57;1143256;-73
2021/12/28 00:08:24;;;;;;;64.03;23.17;;;;;;;-5.30;100.00;100202.78;5000719;58;1143809;-72
2021/12/28 00:13:32;;;;;;;71.67;27.90;;;;;;;-5.29;100.00;100209.64;4931376;59;1143197;-70
2021/12/28 00:18:39;;;;;;;80.70;30.53;;;;;;;-5.29;100.00;100208.80;4973719;59;1143255;-74
2021/12/28 00:23:44;;;;;;;82.20;32.00;;;;;;;-5.28;100.00;100197.61;5009707;58;1143516;-72
2021/12/28 00:28:51;;;;;;;81.90;30.70;;;;;;;-5.27;100.00;100195.00;5028504;58;1141081;-71
2021/12/28 00:33:58;;;;;;;85.07;32.90;;;;;;;-5.27;100.00;100177.40;5028330;58;1141126;-72
2021/12/28 00:39:05;;;;;;;78.40;33.47;;;;;;;-5.24;100.00;100187.66;5028274;58;1141100;-70
2021/12/28 00:44:11;;;;;;;52.00;20.37;;;;;;;-5.19;100.00;100182.80;5028379;58;1141371;-74
2021/12/28 00:49:16;;;;;;;83.00;31.23;;;;;;;-5.18;100.00;100201.70;5028154;59;1141298;-72
2021/12/28 00:54:23;;;;;;;87.50;31.73;;;;;;;-5.18;100.00;100203.84;4976730;59;1141195;-73
2021/12/28 00:59:29;;;;;;;85.17;29.03;;;;;;;-5.18;100.00;100187.09;5096236;57;1141218;-72
2021/12/28 01:04:35;;;;;;;79.40;27.97;;;;;;;-5.16;100.00;100187.91;5139919;57;1141145;-74
2021/12/28 01:09:42;;;;;;;86.30;34.60;;;;;;;-5.18;100.00;100176.77;5141552;57;1141070;-74
2021/12/28 01:14:48;;;;;;;74.10;29.97;;;;;;;-5.14;100.00;100178.42;5061745;57;1141143;-74
2021/12/28 01:19:53;;;;;;;87.80;33.73;;;;;;;-5.12;100.00;100164.22;5141705;57;1140805;-73
2021/12/28 01:24:59;;;;;;;82.17;33.70;;;;;;;-5.14;100.00;100156.95;5142528;57;1141377;-72
2021/12/28 01:30:09;;;;;;;83.80;32.87;;;;;;;-5.13;100.00;100153.50;5142820;57;1141376;-71
2021/12/28 01:35:17;;;;;;;85.53;33.13;;;;;;;-5.13;100.00;100159.50;5154977;56;1141251;-73
2021/12/28 01:40:28;;;;;;;90.50;32.57;;;;;;;-5.13;100.00;100148.34;5155965;56;1140988;-72
2021/12/28 01:45:47;;;;;;;82.30;31.07;;;;;;;-5.11;100.00;100156.45;5189991;56;1139101;-74
2021/12/28 01:50:58;;;;;;;67.65;26.15;;;;;;;-5.12;100.00;100135.42;5190982;57;1143332;-71
2021/12/28 01:56:16;;;;;;;101.07;34.80;;;;;;;-5.12;100.00;100126.84;5191063;56;1143521;-74
2021/12/28 02:01:24;;;;;;;77.77;31.60;;;;;;;-5.09;100.00;100125.49;5213121;56;1145175;-73
2021/12/28 02:06:30;;;;;;;89.43;33.73;;;;;;;-5.05;100.00;100129.72;5221703;56;1143156;-76
2021/12/28 02:11:37;;;;;;;73.40;28.60;;;;;;;-5.01;100.00;100113.28;5166022;56;1143386;-71
2021/12/28 02:16:45;;;;;;;75.83;30.97;;;;;;;-4.98;100.00;100126.96;5135868;57;1143234;-72
2021/12/28 02:21:51;;;;;;;91.00;32.37;;;;;;;-4.91;100.00;100114.80;5135636;57;1143122;-74
2021/12/28 02:26:56;;;;;;;75.23;30.30;;;;;;;-4.90;100.00;100111.78;5135918;57;1143170;-69
2021/12/28 02:32:02;;;;;;;76.17;30.90;;;;;;;-4.88;100.00;100106.13;5135640;57;1143236;-75
2021/12/28 02:37:08;;;;;;;72.43;27.43;;;;;;;-4.88;100.00;100113.86;5072025;58;1143316;-73
2021/12/28 02:42:22;;;;;;;71.17;27.13;;;;;;;-4.89;100.00;100113.48;5048161;58;1143239;-71
2021/12/28 02:47:30;;;;;;;75.12;28.77;;;;;;;-4.88;100.00;100128.89;5029133;58;1143228;-72
2021/12/28 02:52:37;;;;;;;84.53;31.50;;;;;;;-4.84;100.00;100116.80;5048136;58;1143424;-77
2021/12/28 02:58:05;;;;;;;85.50;30.60;;;;;;;-4.80;100.00;100112.84;5026918;58;1143243;-73
2021/12/28 03:03:17;;;;;;;68.17;30.17;;;;;;;-4.79;100.00;100118.41;5045941;58;1143058;-75
2021/12/28 03:08:27;;;;;;;65.23;23.37;;;;;;;-4.78;100.00;100112.36;5133112;57;1143148;-71
2021/12/28 03:13:37;;;;;;;72.80;32.43;;;;;;;-4.75;100.00;100108.44;4974471;58;1143400;-72
2021/12/28 03:18:43;;;;;;;71.13;29.07;;;;;;;-4.74;100.00;100099.81;5059288;57;1143146;-73
2021/12/28 03:23:51;;;;;;;74.90;30.43;;;;;;;-4.74;100.00;100101.11;4974404;58;1143314;-72
2021/12/28 03:28:57;;;;;;;74.70;28.97;;;;;;;-4.74;100.00;100088.20;5059044;58;1143152;-73
2021/12/28 03:34:03;;;;;;;74.37;31.10;;;;;;;-4.71;100.00;100087.27;4974293;58;1143245;-72
2021/12/28 03:39:09;;;;;;;75.37;33.93;;;;;;;-4.68;100.00;100080.75;5059047;57;1143752;-73
2021/12/28 03:44:15;;;;;;;71.53;30.33;;;;;;;-4.67;100.00;100073.42;4974294;58;1143901;-75
2021/12/28 03:49:20;;;;;;;77.32;29.50;;;;;;;-4.64;100.00;100077.23;5058942;57;1143227;-69
2021/12/28 03:54:26;;;;;;;77.50;31.70;;;;;;;-4.62;100.00;100063.86;4974178;58;1143279;-72
2021/12/28 03:59:32;;;;;;;60.33;23.00;;;;;;;-4.62;100.00;100070.30;5058905;57;1140348;-73
2021/12/28 04:04:38;;;;;;;57.10;26.90;;;;;;;-4.61;100.00;100053.50;4974202;58;1141327;-71
2021/12/28 04:10:01;;;;;;;81.57;29.43;;;;;;;-4.59;100.00;100040.57;5082526;57;1141158;-70
2021/12/28 04:15:09;;;;;;;72.30;31.10;;;;;;;-4.58;100.00;100044.00;5133706;57;1141825;-70
2021/12/28 04:20:19;;;;;;;59.13;25.00;;;;;;;-4.54;100.00;100041.73;5131277;57;1141516;-71
2021/12/28 04:25:25;;;;;;;71.00;26.70;;;;;;;-4.53;100.00;100040.41;5131328;57;1141086;-74
2021/12/28 04:30:31;;;;;;;76.50;28.38;;;;;;;-4.52;100.00;100026.62;5130412;57;1141194;-72
2021/12/28 04:35:40;;;;;;;71.60;29.13;;;;;;;-4.50;100.00;100017.55;5130670;57;1141160;-74
2021/12/28 04:40:47;;;;;;;60.07;23.20;;;;;;;-4.48;100.00;100019.66;5130662;57;1141101;-77
2021/12/28 04:45:54;;;;;;;72.90;29.07;;;;;;;-4.47;100.00;100027.80;5043822;58;1141063;-72
2021/12/28 04:51:04;;;;;;;72.33;29.77;;;;;;;-4.48;100.00;100037.72;5131738;57;1141132;-70
2021/12/28 04:56:08;;;;;;;60.92;25.23;;;;;;;-4.49;100.00;100035.58;5131335;57;1140994;-71
2021/12/28 05:01:14;;;;;;;60.97;25.30;;;;;;;-4.40;100.00;100034.50;5052828;58;1139103;-70
2021/12/28 05:06:20;;;;;;;54.97;21.33;;;;;;;-4.38;100.00;100038.73;5129595;57;1139098;-71
2021/12/28 05:11:26;;;;;;;68.00;26.57;;;;;;;-4.37;100.00;100037.86;5078885;56;1142959;-73
2021/12/28 05:16:34;;;;;;;67.73;28.40;;;;;;;-4.34;100.00;100027.91;5051262;57;1143751;-70
2021/12/28 05:21:39;;;;;;;73.40;28.77;;;;;;;-4.31;100.00;100030.42;5072450;58;1143389;-75
2021/12/28 05:26:46;;;;;;;68.95;28.20;;;;;;;-4.27;100.00;100017.81;5072716;58;1143085;-71
2021/12/28 05:31:52;;;;;;;75.10;29.45;;;;;;;-4.26;100.00;99998.41;5071919;57;1143204;-73
2021/12/28 05:36:59;;;;;;;73.90;29.57;;;;;;;-4.25;100.00;99990.23;5155650;57;1141167;-73
2021/12/28 05:42:06;;;;;;;62.17;25.68;;;;;;;-4.26;100.00;99965.30;5042740;57;1140982;-74
2021/12/28 05:47:12;;;;;;;54.30;23.13;;;;;;;-4.25;100.00;99965.70;5131707;57;1141068;-72
2021/12/28 05:52:18;;;;;;;67.93;26.07;;;;;;;-4.25;100.00;99982.04;5131892;57;1141100;-72
2021/12/28 05:57:24;;;;;;;78.23;32.10;;;;;;;-4.25;100.00;99982.04;5131749;57;1140996;-75
2021/12/28 19:51:13;;;;;;;64.97;30.90;;;;;;;-2.83;100.00;99309.11;5351691;54;46328;-71
2021/12/28 19:58:24;;;;;;;110.40;50.30;;;;;;;-2.79;100.00;99330.53;5288093;54;46190;-73
2021/12/28 20:03:30;;;;;;;53.13;27.60;;;;;;;-2.82;100.00;99330.20;5281599;55;1136901;-71
2021/12/28 20:08:36;;;;;;;68.03;30.80;;;;;;;-2.77;100.00;99336.48;5238147;55;1139027;-75
2021/12/28 20:13:42;;;;;;;69.07;30.83;;;;;;;-2.76;100.00;99336.88;5191836;56;1139511;-71
2021/12/28 20:18:47;;;;;;;66.00;29.13;;;;;;;-2.75;100.00;99339.37;5176843;56;1139075;-74
2021/12/28 20:23:55;;;;;;;64.43;30.17;;;;;;;-2.73;100.00;99325.91;5214221;56;1138947;-75
2021/12/28 20:29:02;;;;;;;69.67;28.60;;;;;;;-2.72;100.00;99320.29;5196800;56;1139540;-74
2021/12/28 20:34:09;;;;;;;68.30;31.33;;;;;;;-2.70;100.00;99312.02;5204889;56;1139047;-72
2021/12/28 20:39:17;;;;;;;65.28;27.45;;;;;;;-2.74;100.00;99299.65;5246063;55;1139041;-72
2021/12/28 20:44:24;;;;;;;47.93;22.77;;;;;;;-2.77;100.00;99293.79;5242645;55;1137273;-74
2021/12/28 20:49:32;;;;;;;75.10;32.30;;;;;;;-2.75;100.00;99291.98;5237233;55;1136944;-72
2021/12/28 20:54:38;;;;;;;69.07;31.33;;;;;;;-2.73;100.00;99290.98;5246061;55;1141087;-72
2021/12/28 20:59:44;;;;;;;65.10;32.13;;;;;;;-2.71;100.00;99275.39;5244521;55;1141051;-74
2021/12/28 21:04:50;;;;;;;75.37;33.63;;;;;;;-2.71;100.00;99283.16;5240235;55;1141086;-71
2021/12/28 21:09:56;;;;;;;58.17;28.07;;;;;;;-2.67;100.00;99276.95;5158382;56;1141051;-70
2021/12/28 21:15:02;;;;;;;67.10;31.47;;;;;;;-2.66;100.00;99284.66;5202257;55;1141016;-69
2021/12/28 21:20:12;;;;;;;80.03;35.90;;;;;;;-2.69;100.00;99280.05;5181529;56;1141493;-73
2021/12/28 21:25:19;;;;;;;70.87;32.00;;;;;;;-2.66;100.00;99286.39;5210769;56;1141108;-70
2021/12/28 21:30:28;;;;;;;65.10;31.10;;;;;;;-2.66;100.00;99287.23;5204070;56;1141144;-71
2021/12/28 21:35:34;;;;;;;65.40;31.40;;;;;;;-2.66;100.00;99285.10;5188466;55;1141069;-73
2021/12/28 21:40:40;;;;;;;68.47;30.50;;;;;;;-2.65;100.00;99288.92;5192774;56;1141107;-70
2021/12/28 21:45:47;;;;;;;67.63;31.27;;;;;;;-2.65;100.00;99286.33;5202662;56;1141119;-68
2021/12/28 21:50:54;;;;;;;70.70;31.27;;;;;;;-2.61;100.00;99303.87;5203623;56;1141566;-68
2021/12/28 21:56:00;;;;;;;74.67;32.47;;;;;;;-2.59;100.00;99298.14;5174414;55;1141040;-70
2021/12/28 22:01:06;;;;;;;83.43;34.27;;;;;;;-2.58;100.00;99293.36;5155682;56;1141247;-69
2021/12/28 22:06:13;;;;;;;73.37;32.40;;;;;;;-2.54;100.00;99292.33;5194367;57;1141143;-70
2021/12/28 22:11:19;;;;;;;68.43;30.53;;;;;;;-2.51;100.00;99288.31;5140860;57;1141068;-70
2021/12/28 22:16:25;;;;;;;71.63;32.33;;;;;;;-2.47;100.00;99286.44;5116961;57;1141104;-68
2021/12/28 22:21:31;;;;;;;74.03;32.67;;;;;;;-2.42;100.00;99285.30;5089911;57;1141200;-68
2021/12/28 22:26:36;;;;;;;61.87;25.63;;;;;;;-2.40;100.00;99286.08;5044311;58;1141607;-68
2021/12/28 22:31:43;;;;;;;73.17;30.17;;;;;;;-2.39;100.00;99286.92;5044736;58;1141100;-69
2021/12/28 22:36:48;;;;;;;61.30;29.53;;;;;;;-2.36;100.00;99300.58;5100372;58;1141114;-68
2021/12/28 22:41:55;;;;;;;71.70;29.70;;;;;;;-2.33;100.00;99297.86;5109165;58;1141064;-68
2021/12/28 22:47:01;;;;;;;74.07;32.30;;;;;;;-2.34;100.00;99291.45;5099580;57;1141190;-68
2021/12/28 22:52:08;;;;;;;64.93;29.87;;;;;;;-2.32;100.00;99295.66;5098665;58;1141105;-69
2021/12/28 22:57:14;;;;;;;61.97;29.50;;;;;;;-2.29;100.00;99294.20;5107168;57;1141257;-70
2021/12/28 23:02:20;;;;;;;66.40;29.37;;;;;;;-2.27;100.00;99291.55;5129681;57;1141173;-68
2021/12/28 23:07:27;;;;;;;61.30;28.57;;;;;;;-2.25;100.00;99286.69;5129791;57;1141226;-71
2021/12/28 23:12:32;;;;;;;65.73;27.80;;;;;;;-2.23;100.00;99280.98;5140808;56;1140997;-70
2021/12/28 23:17:38;;;;;;;64.77;28.10;;;;;;;-2.21;100.00;99277.04;5142543;56;1141160;-71
2021/12/28 23:22:44;;;;;;;68.83;30.27;;;;;;;-2.21;100.00;99272.70;5142427;56;1141165;-70
2021/12/28 23:27:51;;;;;;;72.42;31.15;;;;;;;-2.17;100.00;99271.66;5142323;57;1141251;-71
2021/12/28 23:33:01;;;;;;;63.00;30.97;;;;;;;-2.18;100.00;99268.68;5142369;57;1141435;-71
2021/12/28 23:38:09;;;;;;;66.87;30.60;;;;;;;-2.33;100.00;99237.47;5142599;57;1141653;-70
2021/12/28 23:43:16;;;;;;;67.50;32.73;;;;;;;-2.17;100.00;99266.48;5142549;57;1141631;-70
2021/12/28 23:48:22;;;;;;;74.90;32.03;;;;;;;-2.15;100.00;99257.34;5142422;57;1141562;-71
2021/12/28 23:53:28;;;;;;;70.00;30.37;;;;;;;-2.14;100.00;99248.67;5142088;56;1141282;-71
2021/12/28 23:58:34;;;;;;;74.57;32.03;;;;;;;-2.10;100.00;99244.16;5130869;56;1139133;-68
